Time;durP1;ratioP1;P1;durP2;ratioP2;P2;SDS_P1;SDS_P2;PMS_P1;PMS_P2;Temp;Humidity;BMP_temperature;BMP_pressure;BME280_temperature;BME280_humidity;BME280_pressure;Samples;Min_cycle;Max_cycle;Signal;HPM_P1;HPM_P2
2023/10/04 00:00:14;;;;;;;4.55;2.95;;;;;;;21.79;49.49;94371.84;6073272;23;20022;-93
2023/10/04 00:02:40;;;;;;;5.78;3.35;;;;;;;21.78;49.47;94371.09;6075699;23;20342;-93
2023/10/04 00:05:08;;;;;;;5.88;3.22;;;;;;;21.75;49.24;94374.88;6070323;23;20014;-93
2023/10/04 00:07:36;;;;;;;5.43;3.47;;;;;;;21.77;49.48;94374.34;6070794;23;20085;-94
2023/10/04 00:10:05;;;;;;;6.65;3.00;;;;;;;21.76;49.08;94381.13;6070461;23;20022;-92
2023/10/04 00:12:30;;;;;;;5.63;2.85;;;;;;;21.78;49.30;94389.63;6073244;23;20357;-92
2023/10/04 00:14:56;;;;;;;5.30;3.33;;;;;;;21.78;49.10;94393.13;6072844;23;20051;-92
2023/10/04 00:17:22;;;;;;;6.20;3.40;;;;;;;21.78;49.32;94382.09;6071451;23;20068;-92
2023/10/04 00:19:47;;;;;;;6.45;3.58;;;;;;;21.78;49.30;94389.63;6071469;23;20014;-91
2023/10/04 00:22:13;;;;;;;8.32;3.50;;;;;;;21.77;49.30;94388.88;6071931;23;20018;-92
2023/10/04 00:24:39;;;;;;;6.55;3.30;;;;;;;21.77;49.14;94401.88;6072786;23;20436;-92
2023/10/04 00:27:04;;;;;;;4.22;2.95;;;;;;;21.78;49.15;94395.88;6071740;23;20014;-93
2023/10/04 00:29:30;;;;;;;4.57;2.75;;;;;;;21.77;49.25;94383.34;6072498;23;20014;-93
2023/10/04 00:31:56;;;;;;;3.35;2.70;;;;;;;21.78;49.14;94381.34;6072088;23;20025;-92
2023/10/04 00:34:22;;;;;;;4.45;2.80;;;;;;;21.77;49.06;94390.88;6095917;23;20025;-93
2023/10/04 00:36:48;;;;;;;4.70;3.10;;;;;;;21.76;49.22;94387.38;6072480;23;20025;-93
2023/10/04 00:39:13;;;;;;;5.82;3.38;;;;;;;21.76;49.15;94389.38;6071317;23;20010;-92
2023/10/04 00:41:40;;;;;;;5.25;3.63;;;;;;;21.76;49.13;94379.09;6096066;23;20045;-92
2023/10/04 00:44:07;;;;;;;4.82;2.65;;;;;;;21.78;49.14;94381.34;6071720;23;20017;-93
2023/10/04 00:46:35;;;;;;;5.65;3.35;;;;;;;21.77;49.10;94383.34;6073461;23;20022;-93
2023/10/04 00:49:00;;;;;;;5.15;3.08;;;;;;;21.76;48.97;94400.38;6072611;23;20340;-94
2023/10/04 00:51:26;;;;;;;5.20;3.22;;;;;;;21.79;48.89;94402.13;6071291;23;20073;-92
2023/10/04 00:53:53;;;;;;;4.65;3.17;;;;;;;21.78;49.07;94397.88;6071619;23;20070;-94
2023/10/04 00:56:19;;;;;;;4.35;2.90;;;;;;;21.78;49.13;94392.38;6072170;23;20026;-91
2023/10/04 00:58:45;;;;;;;4.50;2.72;;;;;;;21.77;49.00;94396.38;6071641;23;20025;-92
2023/10/04 01:01:11;;;;;;;4.90;3.50;;;;;;;21.78;49.03;94400.63;6071845;23;20025;-91
2023/10/04 01:03:38;;;;;;;6.55;3.47;;;;;;;21.75;48.96;94405.13;6072264;23;20018;-91
2023/10/04 01:06:03;;;;;;;5.40;3.13;;;;;;;21.76;48.98;94401.13;6071770;23;20016;-94
2023/10/04 01:08:29;;;;;;;4.82;3.20;;;;;;;21.75;48.94;94405.13;6071567;23;20042;-94
2023/10/04 01:10:54;;;;;;;4.63;2.88;;;;;;;21.75;48.86;94390.63;6072328;23;20045;-93
2023/10/04 01:13:26;;;;;;;4.95;2.92;;;;;;;21.75;48.99;94385.88;6071795;23;20046;-91
2023/10/04 01:15:55;;;;;;;4.35;2.83;;;;;;;21.74;48.80;94384.38;6074497;23;20041;-92
2023/10/04 01:18:20;;;;;;;4.57;3.58;;;;;;;21.76;48.91;94387.38;6072085;23;20010;-92
2023/10/04 01:20:46;;;;;;;5.03;2.95;;;;;;;21.76;48.88;94383.88;6072780;23;20014;-92
2023/10/04 01:23:11;;;;;;;4.93;2.90;;;;;;;21.73;48.91;94382.88;6071172;23;20558;-93
2023/10/04 01:25:41;;;;;;;4.15;2.58;;;;;;;21.73;48.74;94382.88;6071456;23;20020;-92
2023/10/04 01:28:13;;;;;;;3.63;2.70;;;;;;;21.75;48.91;94387.88;6070988;23;20319;-93
2023/10/04 01:30:40;;;;;;;5.47;2.78;;;;;;;21.75;48.92;94391.38;6074460;23;20398;-93
2023/10/04 01:33:10;;;;;;;4.63;2.70;;;;;;;21.72;48.89;94380.63;6071051;23;20495;-91
2023/10/04 01:35:37;;;;;;;4.85;3.33;;;;;;;21.72;48.71;94369.63;6073773;23;20014;-93
2023/10/04 01:38:06;;;;;;;4.30;2.70;;;;;;;21.71;48.76;94379.13;6071357;23;20017;-92
2023/10/04 01:40:35;;;;;;;4.70;2.70;;;;;;;21.71;48.77;94373.63;6072764;23;20486;-92
2023/10/04 01:43:01;;;;;;;4.63;2.85;;;;;;;21.71;48.63;94355.13;6095362;23;20025;-93
2023/10/04 01:45:27;;;;;;;5.28;3.28;;;;;;;21.70;48.88;94348.13;6072524;23;20496;-92
2023/10/04 01:47:52;;;;;;;5.43;3.33;;;;;;;21.70;48.92;94353.63;6094890;23;20022;-93
2023/10/04 01:50:18;;;;;;;5.07;3.08;;;;;;;21.71;48.87;94374.38;6071288;23;20018;-92
2023/10/04 01:52:45;;;;;;;4.47;2.88;;;;;;;21.72;48.89;94372.38;6072025;23;20105;-93
2023/10/04 01:55:11;;;;;;;6.25;2.80;;;;;;;21.70;48.83;94363.88;6071187;23;20085;-93
2023/10/04 01:57:39;;;;;;;4.78;2.72;;;;;;;21.68;48.96;94380.16;6071271;23;20014;-91
2023/10/04 02:00:07;;;;;;;5.60;3.25;;;;;;;21.69;49.02;94381.66;6094760;23;20018;-92
2023/10/04 02:02:32;;;;;;;4.57;3.38;;;;;;;21.71;48.93;94368.13;6071783;23;20092;-93
2023/10/04 02:04:59;;;;;;;4.72;2.58;;;;;;;21.71;48.63;94379.13;6071821;23;20071;-92
2023/10/04 02:07:25;;;;;;;4.00;2.83;;;;;;;21.70;48.74;94366.63;6071213;23;20021;-93
2023/10/04 02:09:53;;;;;;;5.68;2.95;;;;;;;21.71;48.80;94365.38;6071742;23;20018;-93
2023/10/04 02:12:20;;;;;;;4.40;3.00;;;;;;;21.72;48.68;94370.38;6096052;23;20042;-92
2023/10/04 02:14:46;;;;;;;4.32;2.30;;;;;;;21.69;48.83;94368.63;6072841;23;20085;-92
2023/10/04 02:17:17;;;;;;;4.35;2.65;;;;;;;21.67;48.74;94364.91;6094324;23;20077;-92
2023/10/04 02:19:45;;;;;;;4.63;2.60;;;;;;;21.68;48.84;94367.13;6073262;23;20018;-93
2023/10/04 02:22:12;;;;;;;3.85;2.80;;;;;;;21.70;48.76;94363.88;6071077;23;20141;-93
2023/10/04 02:24:38;;;;;;;4.32;2.88;;;;;;;21.70;48.68;94366.63;6072563;23;20024;-94
2023/10/04 02:27:07;;;;;;;4.75;3.55;;;;;;;21.69;48.69;94371.38;6070596;23;20017;-92
2023/10/04 02:29:34;;;;;;;4.30;2.65;;;;;;;21.70;48.53;94361.13;6072579;23;20021;-92
2023/10/04 02:32:08;;;;;;;3.75;2.58;;;;;;;21.68;48.71;94367.13;6070250;23;20022;-93
2023/10/04 02:34:34;;;;;;;3.92;2.72;;;;;;;21.68;48.63;94363.63;6073513;23;20013;-92
2023/10/04 02:37:00;;;;;;;4.47;3.00;;;;;;;21.69;48.72;94365.13;6071508;23;20080;-92
2023/10/04 02:39:25;;;;;;;4.63;2.60;;;;;;;21.67;48.53;94368.41;6070276;23;20446;-93
2023/10/04 02:41:51;;;;;;;5.43;2.72;;;;;;;21.67;48.80;94362.13;6071404;23;20017;-93
2023/10/04 02:44:17;;;;;;;5.07;2.97;;;;;;;21.68;48.58;94366.38;6071300;23;20018;-93
2023/10/04 02:46:47;;;;;;;3.85;2.63;;;;;;;21.67;48.50;94365.63;6071632;23;20359;-93
2023/10/04 02:49:12;;;;;;;6.40;3.03;;;;;;;21.67;48.32;94360.13;6071759;23;20026;-92
2023/10/04 02:51:38;;;;;;;3.63;2.53;;;;;;;21.68;48.66;94363.63;6071908;23;20036;-93
2023/10/04 02:54:04;;;;;;;4.68;2.50;;;;;;;21.66;48.60;94360.66;6070227;23;20106;-92
2023/10/04 02:56:30;;;;;;;4.50;2.90;;;;;;;21.67;48.46;94359.38;6071308;23;20014;-92
2023/10/04 02:58:56;;;;;;;4.28;2.75;;;;;;;21.67;48.40;94357.38;6095320;23;20049;-93
2023/10/04 03:01:26;;;;;;;3.53;2.63;;;;;;;21.68;48.57;94350.63;6070473;23;20020;-93
2023/10/04 03:03:52;;;;;;;7.50;2.80;;;;;;;21.66;48.42;94366.16;6073305;23;20022;-93
2023/10/04 03:06:22;;;;;;;3.85;2.53;;;;;;;21.66;48.50;94368.91;6070297;23;20018;-93
2023/10/04 03:08:50;;;;;;;3.85;2.28;;;;;;;21.65;48.29;94361.94;6072028;23;20006;-93
2023/10/04 03:11:16;;;;;;;3.90;2.67;;;;;;;21.66;48.55;94360.66;6071086;23;20084;-93
2023/10/04 03:13:41;;;;;;;3.97;2.78;;;;;;;21.67;48.19;94353.88;6070703;23;20349;-92
2023/10/04 03:16:07;;;;;;;2.67;2.28;;;;;;;21.66;48.25;94350.38;6070070;23;20057;-92
2023/10/04 03:18:35;;;;;;;3.40;1.90;;;;;;;21.66;48.21;94344.88;6070690;23;20021;-92
2023/10/04 03:23:32;;;;;;;3.60;2.08;;;;;;;21.67;48.48;94349.13;6094310;23;20085;-93
2023/10/04 03:26:00;;;;;;;4.60;1.98;;;;;;;21.68;48.15;94349.88;6073566;23;20010;-92
2023/10/04 03:28:25;;;;;;;4.20;2.40;;;;;;;21.75;47.72;94347.34;6071497;23;20065;-92
2023/10/04 03:30:52;;;;;;;4.28;2.15;;;;;;;21.52;47.08;94338.47;6070050;23;20350;-93
2023/10/04 03:33:17;;;;;;;10.73;4.22;;;;;;;21.24;47.31;94353.59;6070589;23;20442;-88
2023/10/04 03:35:44;;;;;;;6.22;3.78;;;;;;;21.06;47.40;94355.66;6073106;23;20356;-90
2023/10/04 03:38:09;;;;;;;7.60;5.55;;;;;;;20.83;47.40;94352.22;6069664;23;20026;-91
2023/10/04 03:40:35;;;;;;;4.07;3.35;;;;;;;20.55;47.36;94356.31;6071360;23;20398;-90
2023/10/04 03:43:05;;;;;;;8.05;4.82;;;;;;;20.43;47.47;94350.06;6071816;23;20026;-92
2023/10/04 03:45:34;;;;;;;3.63;2.83;;;;;;;20.21;47.83;94356.28;6057782;23;20026;-92
2023/10/04 03:48:00;;;;;;;5.32;2.92;;;;;;;19.80;48.32;94356.03;6099606;23;20029;-93
2023/10/04 03:50:27;;;;;;;5.40;3.20;;;;;;;19.86;47.86;94356.78;6075808;23;20010;-92
2023/10/04 03:52:57;;;;;;;6.80;2.50;;;;;;;19.56;48.68;94361.22;6074415;23;20098;-91
2023/10/04 03:55:22;;;;;;;4.10;2.80;;;;;;;19.42;48.85;94366.41;6095542;23;20026;-90
2023/10/04 03:57:50;;;;;;;4.88;2.88;;;;;;;19.26;49.04;94369.09;6066740;23;20049;-90
2023/10/04 04:00:17;;;;;;;11.43;3.65;;;;;;;19.22;49.22;94369.34;6069915;23;20398;-91
2023/10/04 04:02:43;;;;;;;9.18;4.30;;;;;;;19.15;49.51;94376.03;6070639;23;20519;-90
2023/10/04 04:05:14;;;;;;;8.18;6.43;;;;;;;19.16;49.06;94377.53;6069559;23;20097;-90
2023/10/04 04:07:41;;;;;;;15.23;6.75;;;;;;;19.02;49.33;94377.72;6071590;23;20014;-93
2023/10/04 04:10:08;;;;;;;12.00;5.00;;;;;;;18.87;49.54;94377.13;6070650;23;20041;-90
2023/10/04 04:12:37;;;;;;;7.25;4.63;;;;;;;18.86;49.74;94367.41;6071277;23;20029;-91
2023/10/04 04:15:12;;;;;;;10.60;4.50;;;;;;;18.76;50.07;94375.09;6069958;23;20025;-92
2023/10/04 04:17:39;;;;;;;10.68;5.45;;;;;;;18.73;50.16;94379.56;6071082;23;20077;-93
2023/10/04 04:20:14;;;;;;;8.68;4.90;;;;;;;18.66;50.56;94374.53;6093724;23;20018;-92
2023/10/04 04:22:50;;;;;;;8.15;4.60;;;;;;;18.59;50.46;94377.75;6062121;23;20017;-93
2023/10/04 04:25:20;;;;;;;25.42;17.35;;;;;;;18.60;50.92;94375.75;6076533;23;20469;-92
2023/10/04 04:27:58;;;;;;;9.85;6.63;;;;;;;18.66;50.33;94366.31;6075287;23;20334;-92
2023/10/04 04:30:31;;;;;;;6.05;4.05;;;;;;;18.61;50.56;94372.53;6069145;23;20030;-90
2023/10/04 04:33:16;;;;;;;18.92;11.90;;;;;;;18.48;50.47;94369.41;6069525;23;20022;-91
2023/10/04 04:38:17;;;;;;;26.80;9.15;;;;;;;18.79;50.37;94376.88;6017719;23;20030;-91
2023/10/04 04:40:48;;;;;;;24.00;14.32;;;;;;;18.95;50.20;94373.44;6005479;23;20098;-93
2023/10/04 04:45:51;;;;;;;27.80;11.10;;;;;;;19.18;49.37;94372.31;6068824;23;20445;-90
2023/10/04 04:48:18;;;;;;;33.83;20.50;;;;;;;19.15;48.95;94375.28;6066540;23;20023;-91
2023/10/04 04:50:43;;;;;;;26.02;15.88;;;;;;;19.25;48.92;94375.81;6055008;23;20021;-91
2023/10/04 04:53:17;;;;;;;19.38;13.05;;;;;;;19.28;48.98;94383.03;6058471;23;20015;-92
2023/10/04 04:55:50;;;;;;;38.00;11.32;;;;;;;19.34;48.70;94381.81;6105921;23;20022;-92
2023/10/04 04:58:18;;;;;;;24.45;9.93;;;;;;;19.41;48.94;94377.88;6033915;23;20023;-93
2023/10/04 05:00:43;;;;;;;40.22;19.83;;;;;;;19.60;48.07;94381.69;5984962;23;20466;-92
2023/10/04 05:03:12;;;;;;;17.73;7.65;;;;;;;19.62;48.08;94386.69;5984534;23;20495;-91
2023/10/04 05:05:39;;;;;;;24.30;8.63;;;;;;;19.58;48.01;94381.44;5959530;23;20217;-91
2023/10/04 05:08:06;;;;;;;59.30;21.48;;;;;;;19.64;47.86;94384.19;5966879;23;20019;-89
2023/10/04 05:10:37;;;;;;;86.53;35.65;;;;;;;19.70;47.97;94382.94;5990828;23;20052;-90
2023/10/04 05:13:04;;;;;;;86.85;39.53;;;;;;;19.80;47.72;94384.22;5995737;23;20029;-92
2023/10/04 05:15:35;;;;;;;111.30;44.97;;;;;;;19.82;47.75;94387.22;6016865;23;20022;-90
2023/10/04 05:18:10;;;;;;;217.05;90.75;;;;;;;19.92;47.76;94395.22;6014410;23;20034;-88
2023/10/04 05:20:38;;;;;;;185.52;88.78;;;;;;;19.98;47.47;94382.25;5989651;23;20042;-89
2023/10/04 05:23:05;;;;;;;198.60;95.07;;;;;;;20.02;47.32;94380.75;5981350;23;20015;-92
2023/10/04 05:25:30;;;;;;;188.15;89.82;;;;;;;20.10;47.18;94376.28;6008921;23;20029;-91
2023/10/04 05:28:04;;;;;;;180.00;89.32;;;;;;;20.14;47.35;94379.50;6007351;23;20023;-92
2023/10/04 05:30:30;;;;;;;160.32;77.65;;;;;;;20.14;47.11;94379.50;6036511;23;20442;-90
2023/10/04 05:32:56;;;;;;;143.93;70.13;;;;;;;20.17;47.05;94373.00;6069200;23;20023;-90
2023/10/04 05:35:22;;;;;;;150.23;69.82;;;;;;;20.25;46.95;94381.50;6092297;23;20382;-90
2023/10/04 05:37:47;;;;;;;130.60;63.80;;;;;;;20.28;46.91;94377.78;6047794;23;20018;-92
2023/10/04 05:40:25;;;;;;;150.45;74.90;;;;;;;20.34;46.99;94384.03;6053319;23;20026;-90
2023/10/04 05:42:54;;;;;;;169.93;80.07;;;;;;;20.35;46.88;94393.00;6055146;23;20033;-92
2023/10/04 05:45:21;;;;;;;178.32;86.80;;;;;;;20.39;46.77;94391.50;5996276;23;20023;-93
2023/10/04 05:47:50;;;;;;;173.27;76.03;;;;;;;20.41;46.66;94396.50;6023666;23;20249;-90
2023/10/04 05:50:18;;;;;;;167.85;79.90;;;;;;;20.45;46.58;94391.50;5998604;23;20066;-91
2023/10/04 05:52:51;;;;;;;236.60;99.47;;;;;;;20.46;46.80;94390.25;6001819;23;20536;-92
2023/10/04 05:55:18;;;;;;;267.02;100.43;;;;;;;20.54;46.59;94394.00;6000742;23;20043;-91
2023/10/04 05:57:45;;;;;;;214.43;88.47;;;;;;;20.57;46.51;94400.50;5948094;23;20455;-93
2023/10/04 06:00:25;;;;;;;206.13;82.72;;;;;;;20.57;46.77;94403.97;5935911;23;20093;-91
2023/10/04 06:02:53;;;;;;;182.68;75.53;;;;;;;20.71;47.39;94404.97;5940659;23;20073;-91
2023/10/04 06:05:20;;;;;;;180.00;72.10;;;;;;;20.74;46.50;94412.22;5980524;23;20071;-90
2023/10/04 06:07:47;;;;;;;171.50;67.60;;;;;;;20.74;46.31;94409.47;5959303;23;20041;-89
2023/10/04 06:10:13;;;;;;;153.50;65.93;;;;;;;20.74;46.27;94412.97;5932084;23;20070;-87
2023/10/04 06:12:39;;;;;;;149.40;68.18;;;;;;;20.78;46.38;94407.22;5982226;23;20030;-90
2023/10/04 06:15:10;;;;;;;114.00;58.17;;;;;;;20.80;46.54;94413.69;5954649;23;20015;-89
2023/10/04 06:17:43;;;;;;;;;;;;;;;20.83;46.58;94420.94;5963472;23;20089;-90
2023/10/04 06:20:23;;;;;;;119.70;58.75;;;;;;;20.82;46.78;94427.69;5980763;23;20273;-90
2023/10/04 06:22:49;;;;;;;;;;;;;;;20.84;46.50;94430.69;5985175;23;20016;-91
2023/10/04 06:25:15;;;;;;;110.03;52.67;;;;;;;20.82;46.46;94435.19;5959571;23;19918;-89
2023/10/04 06:27:40;;;;;;;119.20;52.25;;;;;;;20.82;46.04;94437.94;5941751;23;20098;-93
2023/10/04 06:30:06;;;;;;;106.10;50.33;;;;;;;20.84;46.23;94429.94;5991896;23;20018;-91
2023/10/04 06:32:37;;;;;;;115.45;50.80;;;;;;;20.85;46.23;94439.66;6018922;23;20026;-91
2023/10/04 06:35:05;;;;;;;106.50;49.05;;;;;;;20.87;46.26;94448.91;6042063;23;20027;-88
2023/10/04 06:37:32;;;;;;;119.68;52.45;;;;;;;20.91;46.13;94451.41;6039059;23;20074;-92
2023/10/04 06:40:14;;;;;;;126.85;50.72;;;;;;;20.92;46.12;94465.91;5992457;23;20334;-92
2023/10/04 06:42:46;;;;;;;118.28;52.05;;;;;;;20.94;46.05;94464.16;6018044;23;20059;-92
2023/10/04 06:45:13;;;;;;;108.60;46.38;;;;;;;21.03;46.18;94463.13;6007134;23;20030;-93
2023/10/04 06:47:43;;;;;;;101.38;45.60;;;;;;;21.02;46.00;94464.38;5995964;23;20335;-94
2023/10/04 06:50:13;;;;;;;88.43;42.17;;;;;;;21.03;46.11;94474.88;5998709;23;20019;-93
2023/10/04 06:52:42;;;;;;;101.65;45.00;;;;;;;21.07;45.95;94467.13;6008689;23;20027;-90
2023/10/04 06:55:10;;;;;;;93.50;43.15;;;;;;;21.03;46.05;94477.63;6013900;23;20012;-92
2023/10/04 06:57:35;;;;;;;107.95;45.03;;;;;;;21.07;45.82;94474.63;6013091;23;20018;-91
2023/10/04 07:00:12;;;;;;;116.32;42.35;;;;;;;21.06;46.22;94478.63;5990314;23;20025;-91
2023/10/04 07:02:37;;;;;;;83.78;41.50;;;;;;;21.10;46.05;94479.13;5992278;23;20019;-91
2023/10/04 07:05:05;;;;;;;56.08;26.40;;;;;;;21.03;45.40;94480.38;5986942;23;20018;-91
2023/10/04 07:07:31;;;;;;;56.88;20.30;;;;;;;20.92;45.05;94487.91;5989565;23;20497;-91
2023/10/04 07:09:57;;;;;;;65.38;23.65;;;;;;;20.86;45.30;94483.16;6037482;23;20014;-90
2023/10/04 07:12:22;;;;;;;105.60;36.00;;;;;;;20.82;44.89;94501.88;5990644;23;20037;-90
2023/10/04 07:14:49;;;;;;;108.63;34.05;;;;;;;20.76;44.96;94497.66;5988691;23;20011;-90
2023/10/04 07:17:19;;;;;;;93.32;29.52;;;;;;;20.72;44.90;94494.41;5993871;23;20014;-90
2023/10/04 07:19:45;;;;;;;109.93;26.67;;;;;;;20.71;44.81;94490.16;6003758;23;20026;-94
2023/10/04 07:22:12;;;;;;;50.00;17.00;;;;;;;20.65;44.73;94487.41;5980802;23;20023;-92
2023/10/04 07:24:39;;;;;;;68.85;20.67;;;;;;;20.60;44.84;94496.38;5999562;23;20098;-89
2023/10/04 07:27:04;;;;;;;59.47;15.30;;;;;;;20.63;44.62;94500.13;6030957;23;20518;-89
2023/10/04 07:29:31;;;;;;;43.33;14.50;;;;;;;20.59;44.62;94496.88;5994054;23;20097;-90
2023/10/04 07:31:56;;;;;;;82.35;20.48;;;;;;;20.59;44.68;94491.38;6022456;23;20018;-89
2023/10/04 07:34:27;;;;;;;44.40;19.98;;;;;;;20.53;44.52;94494.91;6020029;23;20023;-88
2023/10/04 07:36:56;;;;;;;46.85;19.00;;;;;;;20.58;44.61;94490.63;6024069;23;20017;-89
2023/10/04 07:39:21;;;;;;;61.08;19.98;;;;;;;20.57;44.59;94491.16;6019450;23;20023;-89
2023/10/04 07:41:47;;;;;;;96.82;28.08;;;;;;;20.67;44.13;94497.91;5996156;23;20051;-89
2023/10/04 07:44:13;;;;;;;131.90;33.45;;;;;;;20.64;43.98;94496.91;6071502;23;20468;-89
2023/10/04 07:46:41;;;;;;;182.80;36.88;;;;;;;20.65;43.86;94503.13;6097792;23;20394;-91
2023/10/04 07:49:06;;;;;;;121.65;31.30;;;;;;;20.62;43.79;94499.38;6074918;23;20011;-90
2023/10/04 07:51:31;;;;;;;126.50;29.00;;;;;;;20.63;43.85;94498.13;6046772;23;20037;-88
2023/10/04 07:54:02;;;;;;;129.32;26.58;;;;;;;20.64;43.44;94496.91;6047677;23;20018;-88
2023/10/04 07:56:28;;;;;;;177.00;39.35;;;;;;;20.62;43.33;94493.16;6071568;23;20022;-89
2023/10/04 07:58:53;;;;;;;183.77;39.88;;;;;;;20.67;43.09;94492.41;6045926;23;20018;-87
2023/10/04 08:01:19;;;;;;;88.63;23.08;;;;;;;20.72;42.89;94492.41;6041515;23;20029;-88
2023/10/04 08:03:44;;;;;;;60.72;18.05;;;;;;;20.71;42.74;94492.91;6069058;23;20015;-89
2023/10/04 08:06:11;;;;;;;61.65;20.35;;;;;;;20.71;42.31;94487.41;6068276;23;20027;-89
2023/10/04 08:08:41;;;;;;;61.20;16.92;;;;;;;20.64;42.05;94487.91;6045957;23;20037;-91
2023/10/04 08:11:10;;;;;;;49.35;14.40;;;;;;;20.59;41.88;94489.38;6041112;23;20038;-90
2023/10/04 08:13:36;;;;;;;39.17;11.32;;;;;;;20.71;41.59;94485.41;6071208;23;20069;-90
2023/10/04 08:16:04;;;;;;;49.58;14.35;;;;;;;20.72;41.65;94486.16;6046105;23;20015;-92
2023/10/04 08:18:30;;;;;;;64.63;27.63;;;;;;;20.64;41.72;94490.66;6044882;23;20026;-90
2023/10/04 08:20:55;;;;;;;63.25;23.23;;;;;;;20.65;41.41;94495.66;6045037;23;20070;-90
2023/10/04 08:23:23;;;;;;;69.00;23.25;;;;;;;20.68;41.48;94491.16;6043918;23;20029;-90
2023/10/04 08:25:51;;;;;;;37.80;17.30;;;;;;;20.65;41.32;94492.91;6043730;23;20014;-89
2023/10/04 08:28:16;;;;;;;49.28;19.63;;;;;;;20.63;41.49;94494.66;6066362;23;20018;-89
2023/10/04 08:30:42;;;;;;;43.13;17.20;;;;;;;20.67;41.32;94500.66;6046503;23;20022;-89
2023/10/04 08:33:08;;;;;;;38.53;16.42;;;;;;;20.67;41.49;94492.41;6046816;23;20081;-89
2023/10/04 08:35:36;;;;;;;41.75;17.33;;;;;;;20.63;41.38;94497.38;6069318;23;20521;-91
2023/10/04 08:38:05;;;;;;;41.75;18.08;;;;;;;20.60;41.35;94492.88;6044923;23;20022;-90
2023/10/04 08:40:32;;;;;;;41.60;18.98;;;;;;;20.64;41.36;94496.16;6068248;23;20018;-90
2023/10/04 08:42:58;;;;;;;50.92;21.33;;;;;;;20.64;41.11;94491.41;6039768;23;20042;-90
2023/10/04 08:45:27;;;;;;;79.85;32.33;;;;;;;20.72;41.42;94497.16;5991956;23;20094;-91
2023/10/04 08:47:59;;;;;;;61.50;24.02;;;;;;;20.69;41.31;94492.66;6016968;23;20036;-90
2023/10/04 08:50:31;;;;;;;49.65;20.20;;;;;;;20.68;41.44;94491.91;6017523;23;20464;-91
2023/10/04 08:53:37;;;;;;;74.97;28.92;;;;;;;20.67;41.48;94489.66;6015130;23;20101;-89
2023/10/04 08:56:07;;;;;;;94.43;40.33;;;;;;;20.65;41.77;94486.66;6033339;23;20091;-90
2023/10/04 08:58:32;;;;;;;137.73;60.90;;;;;;;20.65;41.48;94484.66;6016956;23;20023;-89
2023/10/04 09:00:58;;;;;;;126.97;62.85;;;;;;;20.68;41.56;94480.16;6020209;23;20272;-90
2023/10/04 09:03:23;;;;;;;146.77;72.10;;;;;;;20.73;41.75;94484.91;5996305;23;20039;-90
2023/10/04 09:05:50;;;;;;;166.73;78.43;;;;;;;20.68;41.53;94482.91;5997916;23;20011;-90
2023/10/04 09:08:16;;;;;;;222.70;110.53;;;;;;;20.74;41.48;94478.16;6020991;23;20022;-89
2023/10/04 09:10:42;;;;;;;263.48;129.63;;;;;;;20.71;41.28;94479.16;5993922;23;20694;-90
2023/10/04 09:13:09;;;;;;;268.02;124.25;;;;;;;20.75;41.81;94476.91;5994495;23;20446;-90
2023/10/04 09:15:35;;;;;;;242.82;113.72;;;;;;;20.81;41.48;94472.91;5993740;23;20344;-89
2023/10/04 09:18:02;;;;;;;251.50;116.32;;;;;;;20.78;41.57;94473.94;5993591;23;20385;-90
2023/10/04 09:20:35;;;;;;;260.73;118.40;;;;;;;20.81;41.61;94474.91;5995643;23;20446;-90
2023/10/04 09:23:00;;;;;;;301.27;113.90;;;;;;;20.82;41.50;94466.16;5999798;23;20019;-93
2023/10/04 09:25:39;;;;;;;206.80;89.32;;;;;;;20.77;41.37;94468.94;5999814;23;20018;-90
2023/10/04 09:28:14;;;;;;;145.02;61.97;;;;;;;20.74;41.91;94467.94;6076817;23;20019;-90
2023/10/04 09:30:40;;;;;;;121.53;53.00;;;;;;;20.75;41.52;94469.44;5992233;23;20020;-90
2023/10/04 09:33:28;;;;;;;123.57;58.95;;;;;;;20.75;41.60;94477.66;5961685;23;20667;-91
2023/10/04 09:35:54;;;;;;;114.57;50.55;;;;;;;20.77;41.43;94466.94;5914322;24;20008;-91
2023/10/04 09:38:20;;;;;;;105.55;49.88;;;;;;;20.73;41.63;94471.94;5937615;23;20456;-91
2023/10/04 09:40:55;;;;;;;129.93;46.08;;;;;;;20.74;41.56;94478.16;5935709;24;20026;-91
2023/10/04 09:43:36;;;;;;;118.55;40.38;;;;;;;20.81;41.40;94472.16;5947727;23;20031;-89
2023/10/04 09:46:06;;;;;;;122.63;46.97;;;;;;;20.77;41.01;94477.19;5969199;23;20026;-91
2023/10/04 09:48:33;;;;;;;74.80;34.17;;;;;;;20.79;41.28;94467.16;5966567;23;20027;-91
2023/10/04 09:51:03;;;;;;;73.43;32.60;;;;;;;20.85;41.01;94462.41;5964944;23;20159;-91
2023/10/04 09:53:28;;;;;;;93.00;39.67;;;;;;;20.81;41.44;94466.66;5992980;23;20083;-90
2023/10/04 09:55:54;;;;;;;97.43;34.92;;;;;;;20.84;41.34;94469.16;6009914;23;20019;-91
2023/10/04 09:58:22;;;;;;;121.35;41.03;;;;;;;20.87;41.03;94464.66;5996533;23;20027;-91
2023/10/04 10:00:49;;;;;;;118.55;49.10;;;;;;;21.01;40.93;94471.13;5998088;23;20097;-92
2023/10/04 10:03:29;;;;;;;89.78;35.30;;;;;;;20.86;41.12;94468.66;5995555;23;20444;-91
2023/10/04 10:05:56;;;;;;;84.75;32.17;;;;;;;20.86;41.10;94461.16;6018463;23;20026;-91
2023/10/04 10:08:21;;;;;;;76.97;29.35;;;;;;;20.90;41.83;94468.41;5980930;23;20026;-91
2023/10/04 10:10:47;;;;;;;82.68;34.55;;;;;;;20.91;40.82;94459.66;6019146;23;20387;-91
2023/10/04 10:13:12;;;;;;;82.35;33.65;;;;;;;20.84;40.92;94468.41;6010210;23;20023;-91
2023/10/04 10:15:38;;;;;;;61.20;27.88;;;;;;;20.83;41.18;94469.66;6017993;23;20477;-91
2023/10/04 10:18:04;;;;;;;418.42;338.33;;;;;;;20.84;40.80;94476.66;6037505;23;20011;-88
2023/10/04 10:20:30;;;;;;;120.20;76.43;;;;;;;20.77;41.08;94466.94;6015596;23;20047;-91
2023/10/04 10:22:58;;;;;;;30.52;19.40;;;;;;;20.81;40.89;94470.16;6019055;23;20023;-89
2023/10/04 10:25:25;;;;;;;35.58;16.05;;;;;;;20.83;40.92;94464.16;6060419;23;20015;-88
2023/10/04 10:27:57;;;;;;;39.33;18.60;;;;;;;20.84;41.22;94468.41;6015177;23;20030;-90
2023/10/04 10:30:23;;;;;;;34.97;16.90;;;;;;;20.82;40.86;94470.91;6066042;23;20022;-93
2023/10/04 10:32:54;;;;;;;31.08;14.55;;;;;;;20.84;40.85;94476.66;6045773;23;20021;-90
2023/10/04 10:35:48;;;;;;;298.83;260.77;;;;;;;20.89;40.86;94467.66;6044335;23;20014;-90
2023/10/04 10:38:29;;;;;;;57.65;39.42;;;;;;;20.81;40.65;94480.41;6092125;23;20019;-89
2023/10/04 10:40:55;;;;;;;45.78;13.80;;;;;;;20.79;40.55;94471.91;6068336;23;20029;-90
2023/10/04 10:43:20;;;;;;;43.67;11.90;;;;;;;20.73;40.70;94471.94;6042455;23;20018;-91
2023/10/04 10:45:47;;;;;;;348.20;311.30;;;;;;;20.76;40.46;94464.69;6069363;23;20022;-92
2023/10/04 10:48:13;;;;;;;39.20;17.55;;;;;;;20.77;40.69;94464.19;6098294;23;20029;-90
2023/10/04 10:50:42;;;;;;;22.02;12.50;;;;;;;20.80;40.38;94452.16;6073340;23;20513;-90
2023/10/04 10:53:10;;;;;;;20.80;12.20;;;;;;;20.82;39.93;94444.16;6054219;23;20022;-91
2023/10/04 10:55:38;;;;;;;109.22;17.10;;;;;;;20.76;40.36;94451.69;6105585;23;20498;-91
2023/10/04 10:58:04;;;;;;;25.60;12.38;;;;;;;20.84;40.76;94443.66;6055746;23;20029;-89
2023/10/04 11:00:32;;;;;;;30.85;12.38;;;;;;;20.81;40.98;94437.19;6055819;23;20019;-90
2023/10/04 11:03:00;;;;;;;39.85;12.00;;;;;;;20.84;40.92;94443.66;6052426;23;20022;-91
2023/10/04 11:05:28;;;;;;;40.55;15.02;;;;;;;20.77;40.93;94444.19;6049607;23;20021;-92
2023/10/04 11:07:54;;;;;;;62.67;17.80;;;;;;;20.77;40.62;94447.69;6074892;23;20014;-91
2023/10/04 11:10:23;;;;;;;65.60;26.98;;;;;;;20.81;40.65;94431.69;6046258;23;20022;-93
2023/10/04 11:12:51;;;;;;;93.70;33.97;;;;;;;20.74;40.93;94439.69;6051098;23;20085;-94
2023/10/04 11:15:23;;;;;;;125.57;44.83;;;;;;;20.78;40.60;94431.97;6053461;23;20022;-92
2023/10/04 11:17:54;;;;;;;114.97;42.30;;;;;;;20.82;40.86;94427.69;6053032;23;20019;-91
2023/10/04 11:20:21;;;;;;;122.30;41.97;;;;;;;20.82;40.41;94424.19;6052837;23;20022;-93
2023/10/04 11:22:48;;;;;;;159.95;38.38;;;;;;;20.88;40.56;94424.94;6053997;23;20019;-92
2023/10/04 11:25:14;;;;;;;116.15;38.00;;;;;;;20.87;40.43;94417.94;6080054;23;20026;-92
2023/10/04 11:27:42;;;;;;;215.90;53.08;;;;;;;20.87;40.24;94423.44;6055220;23;20076;-93
2023/10/04 11:30:14;;;;;;;127.80;34.20;;;;;;;20.88;40.57;94411.94;6075548;23;20065;-94
2023/10/04 11:32:50;;;;;;;;;;;;;;;20.88;40.74;94409.19;6068554;23;20805;-94